USTRANSCOM 7522


TBPB
Grantley Adams International Airport
Bridgetown, BB
KCOF
Patrick Air Force Base
Cocoa Beach, US

Activity Log

Date Flight Route Aircraft Duration
06/04/2019 CMB822 BGI UA555 DUNTA A555 ILURI L454 ELMUC Y585 COUKY Y185 CVIKK MLB B752 3h 27m

Route Details

Aircraft Information
Primary: Boeing 757-200SF
Backup: Not Available
Route Data
Distance: 1490nm
Sched. Duration: 4h 20m
Avg. Duration: 3h 27m (-92m)
Times Flown: 1
Recm'd Route: BGI UA555 ILURI A555 COY SJU RTE6 BEANO Y290 HAGIT Y352 ZQA A555 ZBV BR57V WIERS BR22V FLL LBV COSTR3
Planned Altitude: 34,000ft
Origin Wx: TBPB 291900Z 10023KT 2000 +RA SCT010 25/24 Q1008 NOSIG
Dest. Wx: KCOF 291856Z AUTO 20011KT 10SM CLR 32/21 A2986 RMK AO2 SLP116 T03170209 $
Notes: USTRANSCOM CONTRACT FLIGHT

Financial History
Total Freight: 52,399lbs
Average Load: 52,399lbs/flt
Fuel Used: 27,935lbs
Avg. Fuel Used: 27,935lbs/flt
Fuel Expense: $17,320
Avg. Fuel Expense: $17,320
Avg. Fuel Cost: $0.62/lbs
Total Gross Income: $72,835
Pilot Pay: $229
Total Expenses: $7,918
Total Revenue: $46,768
Average Revenue: $72,834.61